sensor_id;sensor_type;location;lat;lon;timestamp;temperature;humidity
13091;DHT22;6611;52.604;13.438;2022-12-29T00:02:42;8.12;84.73
13091;DHT22;6611;52.604;13.438;2022-12-29T00:07:45;8.19;84.88
13091;DHT22;6611;52.604;13.438;2022-12-29T00:12:47;8.17;84.52
13091;DHT22;6611;52.604;13.438;2022-12-29T00:18:07;8.17;84.62
13091;DHT22;6611;52.604;13.438;2022-12-29T00:23:10;8.09;85.25
13091;DHT22;6611;52.604;13.438;2022-12-29T00:28:29;8.13;85.10
13091;DHT22;6611;52.604;13.438;2022-12-29T00:33:44;8.20;84.38
13091;DHT22;6611;52.604;13.438;2022-12-29T00:39:07;8.24;84.72
13091;DHT22;6611;52.604;13.438;2022-12-29T00:44:28;8.24;85.15
13091;DHT22;6611;52.604;13.438;2022-12-29T00:49:30;8.26;85.28
13091;DHT22;6611;52.604;13.438;2022-12-29T00:54:35;8.33;84.51
13091;DHT22;6611;52.604;13.438;2022-12-29T00:59:37;8.29;85.26
13091;DHT22;6611;52.604;13.438;2022-12-29T01:04:39;8.19;85.40
13091;DHT22;6611;52.604;13.438;2022-12-29T01:09:42;8.13;85.87
13091;DHT22;6611;52.604;13.438;2022-12-29T01:15:02;8.17;85.26
13091;DHT22;6611;52.604;13.438;2022-12-29T01:20:04;8.16;85.32
13091;DHT22;6611;52.604;13.438;2022-12-29T01:25:08;8.13;85.51
13091;DHT22;6611;52.604;13.438;2022-12-29T01:30:10;8.20;85.20
13091;DHT22;6611;52.604;13.438;2022-12-29T01:35:12;8.16;85.49
13091;DHT22;6611;52.604;13.438;2022-12-29T01:40:15;8.17;85.92
13091;DHT22;6611;52.604;13.438;2022-12-29T01:45:17;8.23;85.82
13091;DHT22;6611;52.604;13.438;2022-12-29T01:50:22;8.34;85.45
13091;DHT22;6611;52.604;13.438;2022-12-29T01:55:29;8.34;85.72
13091;DHT22;6611;52.604;13.438;2022-12-29T02:00:32;8.33;85.61
13091;DHT22;6611;52.604;13.438;2022-12-29T02:05:38;8.30;86.07
13091;DHT22;6611;52.604;13.438;2022-12-29T02:10:42;8.23;86.23
13091;DHT22;6611;52.604;13.438;2022-12-29T02:15:53;8.17;86.70
13091;DHT22;6611;52.604;13.438;2022-12-29T02:27:01;8.24;86.11
13091;DHT22;6611;52.604;13.438;2022-12-29T02:32:18;8.33;85.43
13091;DHT22;6611;52.604;13.438;2022-12-29T02:37:25;8.34;84.67
13091;DHT22;6611;52.604;13.438;2022-12-29T02:42:33;8.33;84.72
13091;DHT22;6611;52.604;13.438;2022-12-29T02:47:40;8.38;83.96
13091;DHT22;6611;52.604;13.438;2022-12-29T02:52:46;8.61;82.10
13091;DHT22;6611;52.604;13.438;2022-12-29T02:58:12;8.61;82.21
13091;DHT22;6611;52.604;13.438;2022-12-29T03:03:24;8.72;81.72
13091;DHT22;6611;52.604;13.438;2022-12-29T03:08:34;8.80;81.36
13091;DHT22;6611;52.604;13.438;2022-12-29T03:13:44;8.80;80.91
13091;DHT22;6611;52.604;13.438;2022-12-29T03:19:13;8.82;80.65
13091;DHT22;6611;52.604;13.438;2022-12-29T03:24:16;8.99;79.78
13091;DHT22;6611;52.604;13.438;2022-12-29T03:29:20;9.14;79.28
13091;DHT22;6611;52.604;13.438;2022-12-29T03:34:24;9.11;79.44
13091;DHT22;6611;52.604;13.438;2022-12-29T03:39:26;9.14;79.36
13091;DHT22;6611;52.604;13.438;2022-12-29T03:44:33;9.14;79.48
13091;DHT22;6611;52.604;13.438;2022-12-29T03:49:38;9.28;78.65
13091;DHT22;6611;52.604;13.438;2022-12-29T03:54:40;9.30;78.69
13091;DHT22;6611;52.604;13.438;2022-12-29T03:59:42;9.38;78.25
13091;DHT22;6611;52.604;13.438;2022-12-29T04:04:45;9.42;78.53
13091;DHT22;6611;52.604;13.438;2022-12-29T04:09:46;9.46;78.30
13091;DHT22;6611;52.604;13.438;2022-12-29T04:14:48;9.45;78.74
13091;DHT22;6611;52.604;13.438;2022-12-29T04:19:51;9.52;78.06
13091;DHT22;6611;52.604;13.438;2022-12-29T04:25:12;9.54;78.49
13091;DHT22;6611;52.604;13.438;2022-12-29T04:30:14;9.55;78.53
13091;DHT22;6611;52.604;13.438;2022-12-29T04:35:17;9.52;78.75
13091;DHT22;6611;52.604;13.438;2022-12-29T04:40:19;9.44;79.39
13091;DHT22;6611;52.604;13.438;2022-12-29T04:45:21;9.49;78.78
13091;DHT22;6611;52.604;13.438;2022-12-29T04:50:24;9.59;78.35
13091;DHT22;6611;52.604;13.438;2022-12-29T04:55:26;9.59;78.28
13091;DHT22;6611;52.604;13.438;2022-12-29T05:00:27;9.61;78.16
13091;DHT22;6611;52.604;13.438;2022-12-29T05:05:30;9.71;77.87
13091;DHT22;6611;52.604;13.438;2022-12-29T05:10:32;9.73;77.84
13091;DHT22;6611;52.604;13.438;2022-12-29T05:15:33;9.75;77.94
13091;DHT22;6611;52.604;13.438;2022-12-29T05:20:36;9.76;77.86
13091;DHT22;6611;52.604;13.438;2022-12-29T05:25:38;9.79;77.68
13091;DHT22;6611;52.604;13.438;2022-12-29T05:30:40;9.73;78.45
13091;DHT22;6611;52.604;13.438;2022-12-29T05:35:43;9.83;78.12
13091;DHT22;6611;52.604;13.438;2022-12-29T05:40:45;9.87;78.14
13091;DHT22;6611;52.604;13.438;2022-12-29T05:45:48;9.85;78.62
13091;DHT22;6611;52.604;13.438;2022-12-29T05:50:51;9.97;77.92
13091;DHT22;6611;52.604;13.438;2022-12-29T05:55:53;10.00;78.06
13091;DHT22;6611;52.604;13.438;2022-12-29T06:00:54;10.14;77.88
13091;DHT22;6611;52.604;13.438;2022-12-29T06:05:57;10.13;77.56
13091;DHT22;6611;52.604;13.438;2022-12-29T06:10:59;10.18;77.79
13091;DHT22;6611;52.604;13.438;2022-12-29T06:16:01;10.27;77.56
13091;DHT22;6611;52.604;13.438;2022-12-29T06:21:05;10.32;77.69
13091;DHT22;6611;52.604;13.438;2022-12-29T06:26:07;10.40;77.52
13091;DHT22;6611;52.604;13.438;2022-12-29T06:31:09;10.42;77.41
13091;DHT22;6611;52.604;13.438;2022-12-29T06:36:12;10.52;77.16
13091;DHT22;6611;52.604;13.438;2022-12-29T06:41:14;10.63;76.73
13091;DHT22;6611;52.604;13.438;2022-12-29T06:46:16;10.65;76.79
13091;DHT22;6611;52.604;13.438;2022-12-29T06:51:18;10.68;76.74
13091;DHT22;6611;52.604;13.438;2022-12-29T06:56:20;10.70;76.72
13091;DHT22;6611;52.604;13.438;2022-12-29T07:01:22;10.76;76.48
13091;DHT22;6611;52.604;13.438;2022-12-29T07:06:25;10.60;76.96
13091;DHT22;6611;52.604;13.438;2022-12-29T07:11:27;10.60;77.07
13091;DHT22;6611;52.604;13.438;2022-12-29T07:16:28;10.53;77.43
13091;DHT22;6611;52.604;13.438;2022-12-29T07:21:31;10.63;77.31
13091;DHT22;6611;52.604;13.438;2022-12-29T07:26:33;10.84;76.83
13091;DHT22;6611;52.604;13.438;2022-12-29T07:31:36;10.79;76.82
13091;DHT22;6611;52.604;13.438;2022-12-29T07:36:39;10.63;77.16
13091;DHT22;6611;52.604;13.438;2022-12-29T07:41:41;10.48;77.46
13091;DHT22;6611;52.604;13.438;2022-12-29T07:46:43;10.38;77.95
13091;DHT22;6611;52.604;13.438;2022-12-29T07:51:46;10.44;78.12
13091;DHT22;6611;52.604;13.438;2022-12-29T07:56:48;10.53;77.57
13091;DHT22;6611;52.604;13.438;2022-12-29T08:01:50;10.55;77.56
13091;DHT22;6611;52.604;13.438;2022-12-29T08:06:53;10.68;77.32
13091;DHT22;6611;52.604;13.438;2022-12-29T08:11:54;10.68;77.45
13091;DHT22;6611;52.604;13.438;2022-12-29T08:16:56;10.68;77.49
13091;DHT22;6611;52.604;13.438;2022-12-29T08:21:59;10.69;77.23
13091;DHT22;6611;52.604;13.438;2022-12-29T08:27:01;10.79;77.19
13091;DHT22;6611;52.604;13.438;2022-12-29T08:32:03;10.81;76.86
13091;DHT22;6611;52.604;13.438;2022-12-29T08:37:06;10.72;77.38
13091;DHT22;6611;52.604;13.438;2022-12-29T08:42:07;10.65;77.56
13091;DHT22;6611;52.604;13.438;2022-12-29T08:47:09;10.73;77.28
13091;DHT22;6611;52.604;13.438;2022-12-29T08:52:13;10.80;76.86
13091;DHT22;6611;52.604;13.438;2022-12-29T08:57:15;10.87;76.93
13091;DHT22;6611;52.604;13.438;2022-12-29T09:02:16;11.07;76.39
13091;DHT22;6611;52.604;13.438;2022-12-29T09:07:19;11.13;76.24
13091;DHT22;6611;52.604;13.438;2022-12-29T09:12:21;11.35;75.43
13091;DHT22;6611;52.604;13.438;2022-12-29T09:17:23;11.51;75.09
13091;DHT22;6611;52.604;13.438;2022-12-29T09:22:45;11.56;74.80
13091;DHT22;6611;52.604;13.438;2022-12-29T09:27:47;11.61;74.64
13091;DHT22;6611;52.604;13.438;2022-12-29T09:32:49;11.58;74.57
13091;DHT22;6611;52.604;13.438;2022-12-29T09:37:54;11.70;74.46
13091;DHT22;6611;52.604;13.438;2022-12-29T09:43:12;11.72;74.58
13091;DHT22;6611;52.604;13.438;2022-12-29T09:48:22;11.69;74.21
13091;DHT22;6611;52.604;13.438;2022-12-29T09:53:31;11.84;74.30
13091;DHT22;6611;52.604;13.438;2022-12-29T09:58:36;12.04;73.62
13091;DHT22;6611;52.604;13.438;2022-12-29T10:03:45;12.17;73.65
13091;DHT22;6611;52.604;13.438;2022-12-29T10:08:55;12.29;72.73
13091;DHT22;6611;52.604;13.438;2022-12-29T10:14:13;12.20;72.91
13091;DHT22;6611;52.604;13.438;2022-12-29T10:19:35;12.08;73.52
13091;DHT22;6611;52.604;13.438;2022-12-29T10:24:43;12.00;73.86
13091;DHT22;6611;52.604;13.438;2022-12-29T10:29:52;12.08;73.76
13091;DHT22;6611;52.604;13.438;2022-12-29T10:34:58;12.22;74.07
13091;DHT22;6611;52.604;13.438;2022-12-29T10:40:09;12.35;73.05
13091;DHT22;6611;52.604;13.438;2022-12-29T10:45:15;12.42;72.59
13091;DHT22;6611;52.604;13.438;2022-12-29T10:50:18;12.59;73.21
13091;DHT22;6611;52.604;13.438;2022-12-29T10:55:25;12.86;71.72
13091;DHT22;6611;52.604;13.438;2022-12-29T11:00:28;12.91;71.71
13091;DHT22;6611;52.604;13.438;2022-12-29T11:05:34;12.98;71.25
13091;DHT22;6611;52.604;13.438;2022-12-29T11:10:40;13.01;70.96
13091;DHT22;6611;52.604;13.438;2022-12-29T11:15:44;13.05;72.17
13091;DHT22;6611;52.604;13.438;2022-12-29T11:20:46;13.14;71.16
13091;DHT22;6611;52.604;13.438;2022-12-29T11:26:06;13.18;71.10
13091;DHT22;6611;52.604;13.438;2022-12-29T11:31:08;13.16;70.87
13091;DHT22;6611;52.604;13.438;2022-12-29T11:36:13;13.15;71.55
13091;DHT22;6611;52.604;13.438;2022-12-29T11:41:22;12.94;71.82
13091;DHT22;6611;52.604;13.438;2022-12-29T11:46:27;12.87;72.06
13091;DHT22;6611;52.604;13.438;2022-12-29T11:51:34;12.88;72.16
13091;DHT22;6611;52.604;13.438;2022-12-29T11:56:39;12.88;73.11
13091;DHT22;6611;52.604;13.438;2022-12-29T12:01:42;12.53;76.02
13091;DHT22;6611;52.604;13.438;2022-12-29T12:06:47;12.28;77.01
13091;DHT22;6611;52.604;13.438;2022-12-29T12:11:54;12.11;77.28
13091;DHT22;6611;52.604;13.438;2022-12-29T12:17:01;11.90;77.88
13091;DHT22;6611;52.604;13.438;2022-12-29T12:22:12;11.89;78.10
13091;DHT22;6611;52.604;13.438;2022-12-29T12:27:20;11.79;78.83
13091;DHT22;6611;52.604;13.438;2022-12-29T12:32:38;11.76;79.07
13091;DHT22;6611;52.604;13.438;2022-12-29T12:38:00;11.52;80.10
13091;DHT22;6611;52.604;13.438;2022-12-29T12:48:53;11.29;79.03
13091;DHT22;6611;52.604;13.438;2022-12-29T12:54:07;11.39;78.83
13091;DHT22;6611;52.604;13.438;2022-12-29T12:59:21;11.36;78.14
13091;DHT22;6611;52.604;13.438;2022-12-29T13:04:37;11.39;77.64
13091;DHT22;6611;52.604;13.438;2022-12-29T13:09:50;11.40;77.27
13091;DHT22;6611;52.604;13.438;2022-12-29T13:15:07;11.45;77.19
13091;DHT22;6611;52.604;13.438;2022-12-29T13:20:22;11.45;76.44
13091;DHT22;6611;52.604;13.438;2022-12-29T13:25:31;11.54;76.80
13091;DHT22;6611;52.604;13.438;2022-12-29T13:30:41;11.43;77.69
13091;DHT22;6611;52.604;13.438;2022-12-29T13:35:56;11.43;78.46
13091;DHT22;6611;52.604;13.438;2022-12-29T13:41:03;11.45;78.72
13091;DHT22;6611;52.604;13.438;2022-12-29T13:46:10;11.38;79.27
13091;DHT22;6611;52.604;13.438;2022-12-29T13:51:15;11.38;78.99
13091;DHT22;6611;52.604;13.438;2022-12-29T13:56:20;11.39;78.32
13091;DHT22;6611;52.604;13.438;2022-12-29T14:01:31;11.40;78.09
13091;DHT22;6611;52.604;13.438;2022-12-29T14:06:36;11.42;77.98
13091;DHT22;6611;52.604;13.438;2022-12-29T14:11:41;11.36;78.61
13091;DHT22;6611;52.604;13.438;2022-12-29T14:16:46;11.32;78.88
13091;DHT22;6611;52.604;13.438;2022-12-29T14:21:53;11.24;79.51
13091;DHT22;6611;52.604;13.438;2022-12-29T14:26:56;11.22;79.91
13091;DHT22;6611;52.604;13.438;2022-12-29T14:32:00;11.25;79.92
13091;DHT22;6611;52.604;13.438;2022-12-29T14:37:03;11.22;80.37
13091;DHT22;6611;52.604;13.438;2022-12-29T14:42:06;11.15;80.81
13091;DHT22;6611;52.604;13.438;2022-12-29T14:47:17;11.11;81.27
13091;DHT22;6611;52.604;13.438;2022-12-29T14:52:23;11.15;81.02
13091;DHT22;6611;52.604;13.438;2022-12-29T14:57:29;11.22;80.84
13091;DHT22;6611;52.604;13.438;2022-12-29T15:02:38;11.22;80.52
13091;DHT22;6611;52.604;13.438;2022-12-29T15:07:42;11.24;80.40
13091;DHT22;6611;52.604;13.438;2022-12-29T15:12:48;11.29;79.77
13091;DHT22;6611;52.604;13.438;2022-12-29T15:17:53;11.28;80.91
13091;DHT22;6611;52.604;13.438;2022-12-29T15:22:56;10.60;83.85
13091;DHT22;6611;52.604;13.438;2022-12-29T15:28:01;10.20;84.57
13091;DHT22;6611;52.604;13.438;2022-12-29T15:33:17;9.90;86.36
13091;DHT22;6611;52.604;13.438;2022-12-29T15:38:23;9.76;87.06
13091;DHT22;6611;52.604;13.438;2022-12-29T15:43:46;9.76;87.73
13091;DHT22;6611;52.604;13.438;2022-12-29T15:48:54;9.75;87.64
13091;DHT22;6611;52.604;13.438;2022-12-29T15:53:59;9.73;87.57
13091;DHT22;6611;52.604;13.438;2022-12-29T15:59:01;9.68;87.84
13091;DHT22;6611;52.604;13.438;2022-12-29T16:04:06;9.51;88.25
13091;DHT22;6611;52.604;13.438;2022-12-29T16:09:16;9.58;88.06
13091;DHT22;6611;52.604;13.438;2022-12-29T16:14:27;9.52;88.46
13091;DHT22;6611;52.604;13.438;2022-12-29T16:19:35;9.41;89.18
13091;DHT22;6611;52.604;13.438;2022-12-29T16:24:39;9.45;89.00
13091;DHT22;6611;52.604;13.438;2022-12-29T16:29:41;9.48;88.70
13091;DHT22;6611;52.604;13.438;2022-12-29T16:34:45;9.49;87.93
13091;DHT22;6611;52.604;13.438;2022-12-29T16:39:47;9.44;88.24
13091;DHT22;6611;52.604;13.438;2022-12-29T16:44:52;9.34;88.03
13091;DHT22;6611;52.604;13.438;2022-12-29T16:50:12;9.32;87.51
13091;DHT22;6611;52.604;13.438;2022-12-29T16:55:22;9.31;87.08
13091;DHT22;6611;52.604;13.438;2022-12-29T17:00:27;9.32;86.86
13091;DHT22;6611;52.604;13.438;2022-12-29T17:05:32;9.42;84.98
13091;DHT22;6611;52.604;13.438;2022-12-29T17:10:35;9.51;84.01
13091;DHT22;6611;52.604;13.438;2022-12-29T17:15:51;9.56;84.01
13091;DHT22;6611;52.604;13.438;2022-12-29T17:20:54;9.65;82.85
13091;DHT22;6611;52.604;13.438;2022-12-29T17:25:55;9.76;81.87
13091;DHT22;6611;52.604;13.438;2022-12-29T17:31:00;9.91;81.34
13091;DHT22;6611;52.604;13.438;2022-12-29T17:36:05;10.01;79.25
13091;DHT22;6611;52.604;13.438;2022-12-29T17:41:11;10.17;77.90
13091;DHT22;6611;52.604;13.438;2022-12-29T17:46:14;10.28;77.01
13091;DHT22;6611;52.604;13.438;2022-12-29T17:51:18;10.32;77.24
13091;DHT22;6611;52.604;13.438;2022-12-29T17:56:23;10.40;76.78
13091;DHT22;6611;52.604;13.438;2022-12-29T18:01:24;10.31;75.60
13091;DHT22;6611;52.604;13.438;2022-12-29T18:06:28;10.25;77.78
13091;DHT22;6611;52.604;13.438;2022-12-29T18:11:29;10.49;77.40
13091;DHT22;6611;52.604;13.438;2022-12-29T18:16:31;10.76;75.76
13091;DHT22;6611;52.604;13.438;2022-12-29T18:21:35;10.99;75.93
13091;DHT22;6611;52.604;13.438;2022-12-29T18:26:37;11.21;75.44
13091;DHT22;6611;52.604;13.438;2022-12-29T18:31:42;11.45;74.32
13091;DHT22;6611;52.604;13.438;2022-12-29T18:36:46;11.18;72.73
13091;DHT22;6611;52.604;13.438;2022-12-29T18:41:48;10.66;74.23
13091;DHT22;6611;52.604;13.438;2022-12-29T18:46:50;10.37;75.75
13091;DHT22;6611;52.604;13.438;2022-12-29T18:51:53;10.30;75.34
13091;DHT22;6611;52.604;13.438;2022-12-29T18:56:55;10.37;75.12
13091;DHT22;6611;52.604;13.438;2022-12-29T19:01:58;10.35;75.01
13091;DHT22;6611;52.604;13.438;2022-12-29T19:07:01;10.27;76.08
13091;DHT22;6611;52.604;13.438;2022-12-29T19:12:03;10.20;76.20
13091;DHT22;6611;52.604;13.438;2022-12-29T19:17:08;10.32;75.14
13091;DHT22;6611;52.604;13.438;2022-12-29T19:22:11;10.22;76.51
13091;DHT22;6611;52.604;13.438;2022-12-29T19:27:13;10.17;76.20
13091;DHT22;6611;52.604;13.438;2022-12-29T19:32:15;10.17;76.29
13091;DHT22;6611;52.604;13.438;2022-12-29T19:37:18;10.15;76.26
13091;DHT22;6611;52.604;13.438;2022-12-29T19:42:20;10.03;77.35
13091;DHT22;6611;52.604;13.438;2022-12-29T19:47:21;9.73;78.65
13091;DHT22;6611;52.604;13.438;2022-12-29T19:52:25;9.72;79.04
13091;DHT22;6611;52.604;13.438;2022-12-29T19:57:27;9.71;78.73
13091;DHT22;6611;52.604;13.438;2022-12-29T20:02:31;9.69;78.26
13091;DHT22;6611;52.604;13.438;2022-12-29T20:07:34;9.72;78.35
13091;DHT22;6611;52.604;13.438;2022-12-29T20:12:36;9.82;77.99
13091;DHT22;6611;52.604;13.438;2022-12-29T20:17:38;9.83;78.17
13091;DHT22;6611;52.604;13.438;2022-12-29T20:22:41;9.80;78.07
13091;DHT22;6611;52.604;13.438;2022-12-29T20:27:43;9.87;78.22
13091;DHT22;6611;52.604;13.438;2022-12-29T20:32:45;9.82;78.61
13091;DHT22;6611;52.604;13.438;2022-12-29T20:37:48;9.89;78.26
13091;DHT22;6611;52.604;13.438;2022-12-29T20:42:50;9.87;78.52
13091;DHT22;6611;52.604;13.438;2022-12-29T20:47:51;9.82;78.61
13091;DHT22;6611;52.604;13.438;2022-12-29T20:52:55;9.75;79.48
13091;DHT22;6611;52.604;13.438;2022-12-29T20:57:57;9.86;78.66
13091;DHT22;6611;52.604;13.438;2022-12-29T21:02:59;9.79;79.29
13091;DHT22;6611;52.604;13.438;2022-12-29T21:08:03;9.75;79.62
13091;DHT22;6611;52.604;13.438;2022-12-29T21:13:04;9.91;78.68
13091;DHT22;6611;52.604;13.438;2022-12-29T21:18:06;9.93;78.23
13091;DHT22;6611;52.604;13.438;2022-12-29T21:23:09;9.97;77.69
13091;DHT22;6611;52.604;13.438;2022-12-29T21:28:11;10.03;77.21
13091;DHT22;6611;52.604;13.438;2022-12-29T21:33:13;10.00;77.38
13091;DHT22;6611;52.604;13.438;2022-12-29T21:38:16;9.93;78.10
13091;DHT22;6611;52.604;13.438;2022-12-29T21:43:17;10.08;77.25
13091;DHT22;6611;52.604;13.438;2022-12-29T21:48:19;9.98;77.37
13091;DHT22;6611;52.604;13.438;2022-12-29T21:53:26;9.94;77.38
13091;DHT22;6611;52.604;13.438;2022-12-29T21:58:39;9.98;76.46
13091;DHT22;6611;52.604;13.438;2022-12-29T22:03:59;9.93;76.35
13091;DHT22;6611;52.604;13.438;2022-12-29T22:09:19;9.87;75.47
13091;DHT22;6611;52.604;13.438;2022-12-29T22:14:38;9.79;75.10
13091;DHT22;6611;52.604;13.438;2022-12-29T22:19:40;9.82;74.92
13091;DHT22;6611;52.604;13.438;2022-12-29T22:24:43;9.83;74.13
13091;DHT22;6611;52.604;13.438;2022-12-29T22:29:45;9.72;74.21
13091;DHT22;6611;52.604;13.438;2022-12-29T22:34:47;9.76;74.30
13091;DHT22;6611;52.604;13.438;2022-12-29T22:39:50;9.78;74.01
13091;DHT22;6611;52.604;13.438;2022-12-29T22:44:52;9.78;73.79
13091;DHT22;6611;52.604;13.438;2022-12-29T22:49:53;9.85;72.81
13091;DHT22;6611;52.604;13.438;2022-12-29T22:54:56;9.87;72.27
13091;DHT22;6611;52.604;13.438;2022-12-29T22:59:58;9.79;72.11
13091;DHT22;6611;52.604;13.438;2022-12-29T23:04:59;9.79;71.72
13091;DHT22;6611;52.604;13.438;2022-12-29T23:10:04;9.76;72.35
13091;DHT22;6611;52.604;13.438;2022-12-29T23:15:07;9.76;72.25
13091;DHT22;6611;52.604;13.438;2022-12-29T23:20:10;9.73;72.74
13091;DHT22;6611;52.604;13.438;2022-12-29T23:25:13;9.68;72.62
13091;DHT22;6611;52.604;13.438;2022-12-29T23:30:15;9.75;71.93
13091;DHT22;6611;52.604;13.438;2022-12-29T23:35:18;9.71;72.47
13091;DHT22;6611;52.604;13.438;2022-12-29T23:40:22;9.65;73.35
13091;DHT22;6611;52.604;13.438;2022-12-29T23:45:23;9.66;72.62
13091;DHT22;6611;52.604;13.438;2022-12-29T23:50:25;9.66;72.67
13091;DHT22;6611;52.604;13.438;2022-12-29T23:55:28;9.62;72.12
